sensor_id;sensor_type;location;lat;lon;timestamp;P1;durP1;ratioP1;P2;durP2;ratioP2
6133;SDS011;3098;42.678;23.364;2022-11-02T00:00:49;13.02;;;4.45;;
6133;SDS011;3098;42.678;23.364;2022-11-02T00:03:17;11.15;;;3.83;;
6133;SDS011;3098;42.678;23.364;2022-11-02T00:05:43;13.85;;;4.10;;
6133;SDS011;3098;42.678;23.364;2022-11-02T00:08:11;7.20;;;3.03;;
6133;SDS011;3098;42.678;23.364;2022-11-02T00:10:40;9.32;;;4.28;;
6133;SDS011;3098;42.678;23.364;2022-11-02T00:13:08;11.20;;;4.47;;
6133;SDS011;3098;42.678;23.364;2022-11-02T00:15:35;5.28;;;4.18;;
6133;SDS011;3098;42.678;23.364;2022-11-02T00:18:03;7.65;;;3.70;;
6133;SDS011;3098;42.678;23.364;2022-11-02T00:20:33;7.38;;;3.95;;
6133;SDS011;3098;42.678;23.364;2022-11-02T00:23:01;8.93;;;4.32;;
6133;SDS011;3098;42.678;23.364;2022-11-02T00:25:30;9.65;;;4.88;;
6133;SDS011;3098;42.678;23.364;2022-11-02T00:27:59;7.85;;;4.78;;
6133;SDS011;3098;42.678;23.364;2022-11-02T00:30:26;6.95;;;3.83;;
6133;SDS011;3098;42.678;23.364;2022-11-02T00:32:53;10.25;;;4.45;;
6133;SDS011;3098;42.678;23.364;2022-11-02T00:35:21;8.15;;;4.53;;
6133;SDS011;3098;42.678;23.364;2022-11-02T00:37:49;11.57;;;4.55;;
6133;SDS011;3098;42.678;23.364;2022-11-02T00:40:16;7.43;;;4.28;;
6133;SDS011;3098;42.678;23.364;2022-11-02T00:42:43;6.95;;;4.25;;
6133;SDS011;3098;42.678;23.364;2022-11-02T00:45:11;8.57;;;4.43;;
6133;SDS011;3098;42.678;23.364;2022-11-02T00:47:38;4.45;;;2.95;;
6133;SDS011;3098;42.678;23.364;2022-11-02T00:50:06;20.10;;;4.60;;
6133;SDS011;3098;42.678;23.364;2022-11-02T00:52:35;17.75;;;4.60;;
6133;SDS011;3098;42.678;23.364;2022-11-02T00:55:04;7.28;;;3.45;;
6133;SDS011;3098;42.678;23.364;2022-11-02T00:57:33;13.00;;;5.20;;
6133;SDS011;3098;42.678;23.364;2022-11-02T01:00:00;8.38;;;3.90;;
6133;SDS011;3098;42.678;23.364;2022-11-02T01:02:29;10.27;;;4.10;;
6133;SDS011;3098;42.678;23.364;2022-11-02T01:04:57;19.10;;;4.15;;
6133;SDS011;3098;42.678;23.364;2022-11-02T01:07:26;20.45;;;5.28;;
6133;SDS011;3098;42.678;23.364;2022-11-02T01:09:53;11.50;;;5.25;;
6133;SDS011;3098;42.678;23.364;2022-11-02T01:12:21;4.50;;;3.42;;
6133;SDS011;3098;42.678;23.364;2022-11-02T01:14:48;8.02;;;3.70;;
6133;SDS011;3098;42.678;23.364;2022-11-02T01:17:16;6.43;;;3.80;;
6133;SDS011;3098;42.678;23.364;2022-11-02T01:19:46;9.77;;;5.75;;
6133;SDS011;3098;42.678;23.364;2022-11-02T01:22:15;17.77;;;5.63;;
6133;SDS011;3098;42.678;23.364;2022-11-02T01:24:42;10.63;;;5.57;;
6133;SDS011;3098;42.678;23.364;2022-11-02T01:27:09;5.78;;;3.22;;
6133;SDS011;3098;42.678;23.364;2022-11-02T01:29:36;6.53;;;4.00;;
6133;SDS011;3098;42.678;23.364;2022-11-02T01:32:04;25.08;;;4.45;;
6133;SDS011;3098;42.678;23.364;2022-11-02T01:34:30;9.45;;;4.15;;
6133;SDS011;3098;42.678;23.364;2022-11-02T01:36:59;14.63;;;4.97;;
6133;SDS011;3098;42.678;23.364;2022-11-02T01:39:26;7.72;;;3.75;;
6133;SDS011;3098;42.678;23.364;2022-11-02T01:41:53;9.18;;;3.10;;
6133;SDS011;3098;42.678;23.364;2022-11-02T01:44:30;11.38;;;4.75;;
6133;SDS011;3098;42.678;23.364;2022-11-02T01:47:00;11.07;;;5.00;;
6133;SDS011;3098;42.678;23.364;2022-11-02T01:49:31;13.48;;;4.82;;
6133;SDS011;3098;42.678;23.364;2022-11-02T01:52:04;9.70;;;4.88;;
6133;SDS011;3098;42.678;23.364;2022-11-02T01:54:34;11.30;;;3.67;;
6133;SDS011;3098;42.678;23.364;2022-11-02T01:57:05;9.75;;;5.20;;
6133;SDS011;3098;42.678;23.364;2022-11-02T01:59:35;15.18;;;4.57;;
6133;SDS011;3098;42.678;23.364;2022-11-02T02:02:10;14.10;;;6.07;;
6133;SDS011;3098;42.678;23.364;2022-11-02T02:04:43;15.13;;;5.38;;
6133;SDS011;3098;42.678;23.364;2022-11-02T02:07:14;10.18;;;4.03;;
6133;SDS011;3098;42.678;23.364;2022-11-02T02:09:42;8.32;;;4.28;;
6133;SDS011;3098;42.678;23.364;2022-11-02T02:12:10;10.35;;;5.00;;
6133;SDS011;3098;42.678;23.364;2022-11-02T02:14:38;16.00;;;3.50;;
6133;SDS011;3098;42.678;23.364;2022-11-02T02:17:09;12.40;;;4.32;;
6133;SDS011;3098;42.678;23.364;2022-11-02T02:19:50;7.65;;;4.05;;
6133;SDS011;3098;42.678;23.364;2022-11-02T02:22:28;8.65;;;3.30;;
6133;SDS011;3098;42.678;23.364;2022-11-02T02:25:13;7.45;;;3.75;;
6133;SDS011;3098;42.678;23.364;2022-11-02T02:28:05;7.65;;;4.47;;
6133;SDS011;3098;42.678;23.364;2022-11-02T02:30:45;5.00;;;3.50;;
6133;SDS011;3098;42.678;23.364;2022-11-02T02:33:19;17.83;;;4.10;;
6133;SDS011;3098;42.678;23.364;2022-11-02T02:35:56;20.25;;;4.13;;
6133;SDS011;3098;42.678;23.364;2022-11-02T02:38:33;6.78;;;3.90;;
6133;SDS011;3098;42.678;23.364;2022-11-02T02:41:10;6.03;;;2.65;;
6133;SDS011;3098;42.678;23.364;2022-11-02T02:43:44;3.90;;;2.50;;
6133;SDS011;3098;42.678;23.364;2022-11-02T02:46:16;4.47;;;2.47;;
6133;SDS011;3098;42.678;23.364;2022-11-02T02:48:47;2.90;;;2.15;;
6133;SDS011;3098;42.678;23.364;2022-11-02T02:51:18;4.93;;;2.95;;
6133;SDS011;3098;42.678;23.364;2022-11-02T02:53:49;11.35;;;4.22;;
6133;SDS011;3098;42.678;23.364;2022-11-02T02:56:20;12.82;;;4.68;;
6133;SDS011;3098;42.678;23.364;2022-11-02T02:58:52;6.18;;;4.22;;
6133;SDS011;3098;42.678;23.364;2022-11-02T03:01:23;8.52;;;4.18;;
6133;SDS011;3098;42.678;23.364;2022-11-02T03:03:54;6.30;;;4.18;;
6133;SDS011;3098;42.678;23.364;2022-11-02T03:06:22;14.48;;;4.80;;
6133;SDS011;3098;42.678;23.364;2022-11-02T03:08:55;6.80;;;4.10;;
6133;SDS011;3098;42.678;23.364;2022-11-02T03:11:28;6.38;;;3.65;;
6133;SDS011;3098;42.678;23.364;2022-11-02T03:14:06;12.25;;;3.63;;
6133;SDS011;3098;42.678;23.364;2022-11-02T03:16:43;11.48;;;4.15;;
6133;SDS011;3098;42.678;23.364;2022-11-02T03:19:34;13.55;;;4.70;;
6133;SDS011;3098;42.678;23.364;2022-11-02T03:22:08;8.00;;;3.97;;
6133;SDS011;3098;42.678;23.364;2022-11-02T03:24:42;8.65;;;4.10;;
6133;SDS011;3098;42.678;23.364;2022-11-02T03:27:17;17.40;;;4.40;;
6133;SDS011;3098;42.678;23.364;2022-11-02T03:29:51;11.57;;;5.18;;
6133;SDS011;3098;42.678;23.364;2022-11-02T03:32:23;8.40;;;4.10;;
6133;SDS011;3098;42.678;23.364;2022-11-02T03:34:54;7.55;;;4.75;;
6133;SDS011;3098;42.678;23.364;2022-11-02T03:37:26;15.90;;;4.43;;
6133;SDS011;3098;42.678;23.364;2022-11-02T03:39:56;7.60;;;3.72;;
6133;SDS011;3098;42.678;23.364;2022-11-02T03:42:31;8.70;;;4.13;;
6133;SDS011;3098;42.678;23.364;2022-11-02T03:45:03;8.80;;;4.35;;
6133;SDS011;3098;42.678;23.364;2022-11-02T03:47:36;7.88;;;3.80;;
6133;SDS011;3098;42.678;23.364;2022-11-02T03:50:05;11.65;;;4.72;;
6133;SDS011;3098;42.678;23.364;2022-11-02T03:52:35;8.98;;;4.80;;
6133;SDS011;3098;42.678;23.364;2022-11-02T03:55:06;6.15;;;4.32;;
6133;SDS011;3098;42.678;23.364;2022-11-02T03:57:38;21.65;;;5.47;;
6133;SDS011;3098;42.678;23.364;2022-11-02T04:00:12;9.07;;;4.50;;
6133;SDS011;3098;42.678;23.364;2022-11-02T04:02:41;9.00;;;4.25;;
6133;SDS011;3098;42.678;23.364;2022-11-02T04:05:11;8.10;;;4.22;;
6133;SDS011;3098;42.678;23.364;2022-11-02T04:07:40;8.68;;;4.32;;
6133;SDS011;3098;42.678;23.364;2022-11-02T04:10:42;16.98;;;4.43;;
6133;SDS011;3098;42.678;23.364;2022-11-02T04:13:23;11.00;;;3.67;;
6133;SDS011;3098;42.678;23.364;2022-11-02T04:16:09;7.22;;;4.43;;
6133;SDS011;3098;42.678;23.364;2022-11-02T04:18:37;8.63;;;4.80;;
6133;SDS011;3098;42.678;23.364;2022-11-02T04:21:21;7.38;;;4.40;;
6133;SDS011;3098;42.678;23.364;2022-11-02T04:23:49;8.02;;;5.03;;
6133;SDS011;3098;42.678;23.364;2022-11-02T04:26:32;19.85;;;4.03;;
6133;SDS011;3098;42.678;23.364;2022-11-02T04:29:00;17.77;;;5.45;;
6133;SDS011;3098;42.678;23.364;2022-11-02T04:31:28;16.15;;;4.47;;
6133;SDS011;3098;42.678;23.364;2022-11-02T04:33:56;11.88;;;4.53;;
6133;SDS011;3098;42.678;23.364;2022-11-02T04:36:24;11.30;;;4.85;;
6133;SDS011;3098;42.678;23.364;2022-11-02T04:38:51;7.85;;;4.25;;
6133;SDS011;3098;42.678;23.364;2022-11-02T04:41:18;16.65;;;5.97;;
6133;SDS011;3098;42.678;23.364;2022-11-02T04:44:04;9.68;;;3.45;;
6133;SDS011;3098;42.678;23.364;2022-11-02T04:46:33;12.05;;;5.00;;
6133;SDS011;3098;42.678;23.364;2022-11-02T04:49:02;10.98;;;4.60;;
6133;SDS011;3098;42.678;23.364;2022-11-02T04:51:30;12.50;;;5.03;;
6133;SDS011;3098;42.678;23.364;2022-11-02T04:53:57;16.55;;;5.82;;
6133;SDS011;3098;42.678;23.364;2022-11-02T04:56:25;7.25;;;4.70;;
6133;SDS011;3098;42.678;23.364;2022-11-02T04:58:53;12.00;;;5.95;;
6133;SDS011;3098;42.678;23.364;2022-11-02T05:01:23;14.32;;;4.78;;
6133;SDS011;3098;42.678;23.364;2022-11-02T05:03:53;11.35;;;4.60;;
6133;SDS011;3098;42.678;23.364;2022-11-02T05:06:22;12.60;;;6.30;;
6133;SDS011;3098;42.678;23.364;2022-11-02T05:08:50;19.02;;;8.45;;
6133;SDS011;3098;42.678;23.364;2022-11-02T05:11:17;17.08;;;7.90;;
6133;SDS011;3098;42.678;23.364;2022-11-02T05:13:44;13.25;;;6.13;;
6133;SDS011;3098;42.678;23.364;2022-11-02T05:16:14;14.60;;;6.78;;
6133;SDS011;3098;42.678;23.364;2022-11-02T05:18:42;17.77;;;5.40;;
6133;SDS011;3098;42.678;23.364;2022-11-02T05:21:11;16.88;;;5.93;;
6133;SDS011;3098;42.678;23.364;2022-11-02T05:23:38;18.20;;;6.40;;
6133;SDS011;3098;42.678;23.364;2022-11-02T05:26:06;12.77;;;5.75;;
6133;SDS011;3098;42.678;23.364;2022-11-02T05:28:35;15.80;;;5.32;;
6133;SDS011;3098;42.678;23.364;2022-11-02T05:31:02;15.23;;;6.22;;
6133;SDS011;3098;42.678;23.364;2022-11-02T05:33:30;15.48;;;6.57;;
6133;SDS011;3098;42.678;23.364;2022-11-02T05:35:58;19.25;;;6.03;;
6133;SDS011;3098;42.678;23.364;2022-11-02T05:38:27;10.52;;;5.70;;
6133;SDS011;3098;42.678;23.364;2022-11-02T05:40:55;12.88;;;5.50;;
6133;SDS011;3098;42.678;23.364;2022-11-02T05:43:23;22.20;;;5.97;;
6133;SDS011;3098;42.678;23.364;2022-11-02T05:45:52;15.77;;;6.75;;
6133;SDS011;3098;42.678;23.364;2022-11-02T05:48:20;13.48;;;4.90;;
6133;SDS011;3098;42.678;23.364;2022-11-02T05:50:53;14.27;;;6.57;;
6133;SDS011;3098;42.678;23.364;2022-11-02T05:53:21;18.70;;;6.32;;
6133;SDS011;3098;42.678;23.364;2022-11-02T05:55:51;15.02;;;6.78;;
6133;SDS011;3098;42.678;23.364;2022-11-02T05:58:18;13.73;;;5.82;;
6133;SDS011;3098;42.678;23.364;2022-11-02T06:00:45;15.07;;;7.38;;
6133;SDS011;3098;42.678;23.364;2022-11-02T06:03:12;14.88;;;5.43;;
6133;SDS011;3098;42.678;23.364;2022-11-02T06:05:41;15.18;;;6.05;;
6133;SDS011;3098;42.678;23.364;2022-11-02T06:08:09;13.65;;;4.88;;
6133;SDS011;3098;42.678;23.364;2022-11-02T06:10:39;12.23;;;5.55;;
6133;SDS011;3098;42.678;23.364;2022-11-02T06:13:09;18.48;;;7.22;;
6133;SDS011;3098;42.678;23.364;2022-11-02T06:15:35;10.57;;;5.68;;
6133;SDS011;3098;42.678;23.364;2022-11-02T06:18:03;17.63;;;7.00;;
6133;SDS011;3098;42.678;23.364;2022-11-02T06:20:30;20.70;;;6.68;;
6133;SDS011;3098;42.678;23.364;2022-11-02T06:23:01;14.70;;;6.45;;
6133;SDS011;3098;42.678;23.364;2022-11-02T06:25:28;17.42;;;6.50;;
6133;SDS011;3098;42.678;23.364;2022-11-02T06:27:56;14.82;;;8.68;;
6133;SDS011;3098;42.678;23.364;2022-11-02T06:30:25;16.48;;;7.10;;
6133;SDS011;3098;42.678;23.364;2022-11-02T06:32:52;13.55;;;6.20;;
6133;SDS011;3098;42.678;23.364;2022-11-02T06:35:20;12.70;;;5.90;;
6133;SDS011;3098;42.678;23.364;2022-11-02T06:37:49;15.40;;;6.80;;
6133;SDS011;3098;42.678;23.364;2022-11-02T06:40:23;19.55;;;6.25;;
6133;SDS011;3098;42.678;23.364;2022-11-02T06:42:53;31.15;;;7.38;;
6133;SDS011;3098;42.678;23.364;2022-11-02T06:45:21;15.77;;;6.35;;
6133;SDS011;3098;42.678;23.364;2022-11-02T06:47:50;17.20;;;7.03;;
6133;SDS011;3098;42.678;23.364;2022-11-02T06:50:18;14.30;;;6.28;;
6133;SDS011;3098;42.678;23.364;2022-11-02T06:52:46;24.23;;;6.90;;
6133;SDS011;3098;42.678;23.364;2022-11-02T06:55:16;13.48;;;7.72;;
6133;SDS011;3098;42.678;23.364;2022-11-02T06:57:44;21.70;;;7.57;;
6133;SDS011;3098;42.678;23.364;2022-11-02T07:00:12;26.55;;;8.30;;
6133;SDS011;3098;42.678;23.364;2022-11-02T07:02:42;24.20;;;10.25;;
6133;SDS011;3098;42.678;23.364;2022-11-02T07:05:17;27.77;;;9.38;;
6133;SDS011;3098;42.678;23.364;2022-11-02T07:07:46;27.15;;;10.10;;
6133;SDS011;3098;42.678;23.364;2022-11-02T07:10:14;21.42;;;10.25;;
6133;SDS011;3098;42.678;23.364;2022-11-02T07:12:41;24.40;;;9.82;;
6133;SDS011;3098;42.678;23.364;2022-11-02T07:15:09;22.85;;;8.23;;
6133;SDS011;3098;42.678;23.364;2022-11-02T07:17:37;18.42;;;9.35;;
6133;SDS011;3098;42.678;23.364;2022-11-02T07:20:05;18.80;;;7.70;;
6133;SDS011;3098;42.678;23.364;2022-11-02T07:22:36;24.27;;;8.73;;
6133;SDS011;3098;42.678;23.364;2022-11-02T07:25:03;12.73;;;6.18;;
6133;SDS011;3098;42.678;23.364;2022-11-02T07:27:36;21.58;;;7.47;;
6133;SDS011;3098;42.678;23.364;2022-11-02T07:30:04;21.15;;;8.77;;
6133;SDS011;3098;42.678;23.364;2022-11-02T07:32:39;20.60;;;7.55;;
6133;SDS011;3098;42.678;23.364;2022-11-02T07:35:07;16.98;;;6.82;;
6133;SDS011;3098;42.678;23.364;2022-11-02T07:37:37;15.48;;;6.50;;
6133;SDS011;3098;42.678;23.364;2022-11-02T07:40:04;17.95;;;6.65;;
6133;SDS011;3098;42.678;23.364;2022-11-02T07:42:34;15.00;;;7.25;;
6133;SDS011;3098;42.678;23.364;2022-11-02T07:45:01;20.67;;;7.65;;
6133;SDS011;3098;42.678;23.364;2022-11-02T07:47:29;18.85;;;7.13;;
6133;SDS011;3098;42.678;23.364;2022-11-02T07:49:57;27.85;;;7.90;;
6133;SDS011;3098;42.678;23.364;2022-11-02T07:52:26;14.95;;;7.47;;
6133;SDS011;3098;42.678;23.364;2022-11-02T07:54:55;17.45;;;7.95;;
6133;SDS011;3098;42.678;23.364;2022-11-02T07:57:22;19.23;;;7.75;;
6133;SDS011;3098;42.678;23.364;2022-11-02T07:59:49;15.52;;;7.10;;
6133;SDS011;3098;42.678;23.364;2022-11-02T08:02:17;20.17;;;7.65;;
6133;SDS011;3098;42.678;23.364;2022-11-02T08:04:45;19.63;;;8.60;;
6133;SDS011;3098;42.678;23.364;2022-11-02T08:07:13;11.90;;;6.20;;
6133;SDS011;3098;42.678;23.364;2022-11-02T08:09:40;17.17;;;8.77;;
6133;SDS011;3098;42.678;23.364;2022-11-02T08:12:15;16.67;;;8.52;;
6133;SDS011;3098;42.678;23.364;2022-11-02T08:14:43;16.38;;;8.13;;
6133;SDS011;3098;42.678;23.364;2022-11-02T08:17:13;14.90;;;6.53;;
6133;SDS011;3098;42.678;23.364;2022-11-02T08:19:40;18.05;;;7.82;;
6133;SDS011;3098;42.678;23.364;2022-11-02T08:22:07;20.90;;;8.32;;
6133;SDS011;3098;42.678;23.364;2022-11-02T08:24:35;16.90;;;8.50;;
6133;SDS011;3098;42.678;23.364;2022-11-02T08:27:03;15.07;;;7.70;;
6133;SDS011;3098;42.678;23.364;2022-11-02T08:29:32;18.48;;;9.35;;
6133;SDS011;3098;42.678;23.364;2022-11-02T08:32:01;17.60;;;8.13;;
6133;SDS011;3098;42.678;23.364;2022-11-02T08:34:28;17.13;;;8.57;;
6133;SDS011;3098;42.678;23.364;2022-11-02T08:36:57;23.92;;;7.53;;
6133;SDS011;3098;42.678;23.364;2022-11-02T08:39:24;18.52;;;7.90;;
6133;SDS011;3098;42.678;23.364;2022-11-02T08:41:51;19.75;;;7.63;;
6133;SDS011;3098;42.678;23.364;2022-11-02T08:44:18;29.80;;;7.55;;
6133;SDS011;3098;42.678;23.364;2022-11-02T08:46:47;21.95;;;8.00;;
6133;SDS011;3098;42.678;23.364;2022-11-02T08:49:15;15.68;;;7.85;;
6133;SDS011;3098;42.678;23.364;2022-11-02T08:51:44;22.77;;;8.05;;
6133;SDS011;3098;42.678;23.364;2022-11-02T08:54:12;17.00;;;7.55;;
6133;SDS011;3098;42.678;23.364;2022-11-02T08:56:41;18.15;;;7.03;;
6133;SDS011;3098;42.678;23.364;2022-11-02T08:59:09;23.88;;;8.70;;
6133;SDS011;3098;42.678;23.364;2022-11-02T09:01:37;23.13;;;8.50;;
6133;SDS011;3098;42.678;23.364;2022-11-02T09:04:06;18.58;;;7.70;;
6133;SDS011;3098;42.678;23.364;2022-11-02T09:06:34;22.60;;;7.72;;
6133;SDS011;3098;42.678;23.364;2022-11-02T09:09:02;14.75;;;8.00;;
6133;SDS011;3098;42.678;23.364;2022-11-02T09:11:30;20.05;;;7.78;;
6133;SDS011;3098;42.678;23.364;2022-11-02T09:13:58;25.17;;;9.57;;
6133;SDS011;3098;42.678;23.364;2022-11-02T09:16:25;22.27;;;9.23;;
6133;SDS011;3098;42.678;23.364;2022-11-02T09:18:52;21.23;;;8.82;;
6133;SDS011;3098;42.678;23.364;2022-11-02T09:21:22;14.13;;;7.47;;
6133;SDS011;3098;42.678;23.364;2022-11-02T09:23:48;14.32;;;7.43;;
6133;SDS011;3098;42.678;23.364;2022-11-02T09:26:16;18.98;;;8.50;;
6133;SDS011;3098;42.678;23.364;2022-11-02T09:28:43;22.10;;;8.10;;
6133;SDS011;3098;42.678;23.364;2022-11-02T09:31:11;20.88;;;8.73;;
6133;SDS011;3098;42.678;23.364;2022-11-02T09:33:39;19.30;;;8.27;;
6133;SDS011;3098;42.678;23.364;2022-11-02T09:36:09;24.23;;;8.32;;
6133;SDS011;3098;42.678;23.364;2022-11-02T09:38:39;18.13;;;7.60;;
6133;SDS011;3098;42.678;23.364;2022-11-02T09:43:57;17.10;;;7.13;;
6133;SDS011;3098;42.678;23.364;2022-11-02T09:46:30;20.20;;;8.10;;
6133;SDS011;3098;42.678;23.364;2022-11-02T09:49:02;16.50;;;9.40;;
6133;SDS011;3098;42.678;23.364;2022-11-02T09:51:32;16.15;;;7.40;;
6133;SDS011;3098;42.678;23.364;2022-11-02T09:54:07;19.65;;;7.95;;
6133;SDS011;3098;42.678;23.364;2022-11-02T09:56:41;17.45;;;7.13;;
6133;SDS011;3098;42.678;23.364;2022-11-02T09:59:11;13.80;;;7.03;;
6133;SDS011;3098;42.678;23.364;2022-11-02T10:01:50;19.02;;;8.95;;
6133;SDS011;3098;42.678;23.364;2022-11-02T10:07:18;18.48;;;7.93;;
6133;SDS011;3098;42.678;23.364;2022-11-02T10:09:56;17.33;;;7.80;;
6133;SDS011;3098;42.678;23.364;2022-11-02T10:12:30;30.42;;;7.07;;
6133;SDS011;3098;42.678;23.364;2022-11-02T10:15:09;20.35;;;8.52;;
6133;SDS011;3098;42.678;23.364;2022-11-02T10:17:56;20.20;;;7.75;;
6133;SDS011;3098;42.678;23.364;2022-11-02T10:20:26;20.38;;;7.50;;
6133;SDS011;3098;42.678;23.364;2022-11-02T10:23:00;19.58;;;7.82;;
6133;SDS011;3098;42.678;23.364;2022-11-02T10:25:32;25.92;;;8.32;;
6133;SDS011;3098;42.678;23.364;2022-11-02T10:28:02;25.98;;;8.07;;
6133;SDS011;3098;42.678;23.364;2022-11-02T10:30:37;17.17;;;6.95;;
6133;SDS011;3098;42.678;23.364;2022-11-02T10:33:05;20.55;;;8.25;;
6133;SDS011;3098;42.678;23.364;2022-11-02T10:35:40;19.58;;;7.65;;
6133;SDS011;3098;42.678;23.364;2022-11-02T10:38:30;21.17;;;7.38;;
6133;SDS011;3098;42.678;23.364;2022-11-02T10:41:11;21.52;;;7.88;;
6133;SDS011;3098;42.678;23.364;2022-11-02T10:43:53;19.00;;;8.93;;
6133;SDS011;3098;42.678;23.364;2022-11-02T10:46:36;14.13;;;6.57;;
6133;SDS011;3098;42.678;23.364;2022-11-02T10:49:17;17.08;;;7.25;;
6133;SDS011;3098;42.678;23.364;2022-11-02T10:51:54;15.35;;;6.72;;
6133;SDS011;3098;42.678;23.364;2022-11-02T10:54:21;20.23;;;7.90;;
6133;SDS011;3098;42.678;23.364;2022-11-02T10:56:53;11.50;;;5.68;;
6133;SDS011;3098;42.678;23.364;2022-11-02T10:59:22;13.50;;;6.55;;
6133;SDS011;3098;42.678;23.364;2022-11-02T11:02:03;8.45;;;4.47;;
6133;SDS011;3098;42.678;23.364;2022-11-02T11:04:36;13.80;;;7.03;;
6133;SDS011;3098;42.678;23.364;2022-11-02T11:07:04;12.50;;;4.43;;
6133;SDS011;3098;42.678;23.364;2022-11-02T11:09:35;14.30;;;5.45;;
6133;SDS011;3098;42.678;23.364;2022-11-02T11:12:12;16.02;;;4.80;;
6133;SDS011;3098;42.678;23.364;2022-11-02T11:14:47;15.50;;;5.45;;
6133;SDS011;3098;42.678;23.364;2022-11-02T11:17:19;10.82;;;5.28;;
6133;SDS011;3098;42.678;23.364;2022-11-02T11:19:51;13.90;;;5.10;;
6133;SDS011;3098;42.678;23.364;2022-11-02T11:22:23;9.65;;;4.82;;
6133;SDS011;3098;42.678;23.364;2022-11-02T11:24:52;10.27;;;4.43;;
6133;SDS011;3098;42.678;23.364;2022-11-02T11:27:21;10.68;;;4.10;;
6133;SDS011;3098;42.678;23.364;2022-11-02T11:29:49;10.18;;;3.50;;
6133;SDS011;3098;42.678;23.364;2022-11-02T11:32:21;11.40;;;5.03;;
6133;SDS011;3098;42.678;23.364;2022-11-02T11:34:57;5.95;;;3.13;;
6133;SDS011;3098;42.678;23.364;2022-11-02T11:37:27;10.02;;;3.28;;
6133;SDS011;3098;42.678;23.364;2022-11-02T11:39:58;8.75;;;3.38;;
6133;SDS011;3098;42.678;23.364;2022-11-02T11:42:30;5.72;;;3.90;;
6133;SDS011;3098;42.678;23.364;2022-11-02T11:45:02;6.47;;;3.53;;
6133;SDS011;3098;42.678;23.364;2022-11-02T11:47:33;7.93;;;2.85;;
6133;SDS011;3098;42.678;23.364;2022-11-02T11:50:03;13.90;;;2.60;;
6133;SDS011;3098;42.678;23.364;2022-11-02T11:52:36;5.15;;;2.47;;
6133;SDS011;3098;42.678;23.364;2022-11-02T11:55:18;4.75;;;2.38;;
6133;SDS011;3098;42.678;23.364;2022-11-02T11:57:52;6.38;;;2.28;;
6133;SDS011;3098;42.678;23.364;2022-11-02T12:00:32;3.42;;;1.88;;
6133;SDS011;3098;42.678;23.364;2022-11-02T12:03:12;10.73;;;2.20;;
6133;SDS011;3098;42.678;23.364;2022-11-02T12:05:46;3.80;;;2.10;;
6133;SDS011;3098;42.678;23.364;2022-11-02T12:11:16;5.65;;;2.28;;
6133;SDS011;3098;42.678;23.364;2022-11-02T12:14:03;4.97;;;2.63;;
6133;SDS011;3098;42.678;23.364;2022-11-02T12:16:51;6.85;;;2.33;;
6133;SDS011;3098;42.678;23.364;2022-11-02T12:19:40;4.18;;;1.75;;
6133;SDS011;3098;42.678;23.364;2022-11-02T12:22:22;13.35;;;2.40;;
6133;SDS011;3098;42.678;23.364;2022-11-02T12:25:02;11.75;;;2.05;;
6133;SDS011;3098;42.678;23.364;2022-11-02T12:27:45;7.57;;;1.98;;
6133;SDS011;3098;42.678;23.364;2022-11-02T12:30:23;5.55;;;1.92;;
6133;SDS011;3098;42.678;23.364;2022-11-02T12:33:05;5.18;;;2.00;;
6133;SDS011;3098;42.678;23.364;2022-11-02T12:35:49;7.95;;;1.65;;
6133;SDS011;3098;42.678;23.364;2022-11-02T12:38:35;4.88;;;1.83;;
6133;SDS011;3098;42.678;23.364;2022-11-02T12:41:12;8.30;;;2.15;;
6133;SDS011;3098;42.678;23.364;2022-11-02T12:43:54;2.08;;;1.48;;
6133;SDS011;3098;42.678;23.364;2022-11-02T12:46:33;2.88;;;1.23;;
6133;SDS011;3098;42.678;23.364;2022-11-02T12:49:16;7.03;;;2.05;;
6133;SDS011;3098;42.678;23.364;2022-11-02T12:51:53;7.70;;;1.92;;
6133;SDS011;3098;42.678;23.364;2022-11-02T12:54:33;10.60;;;2.33;;
6133;SDS011;3098;42.678;23.364;2022-11-02T12:57:06;4.93;;;2.50;;
6133;SDS011;3098;42.678;23.364;2022-11-02T12:59:39;3.55;;;2.03;;
6133;SDS011;3098;42.678;23.364;2022-11-02T13:02:12;10.43;;;1.92;;
6133;SDS011;3098;42.678;23.364;2022-11-02T13:04:45;11.35;;;2.30;;
6133;SDS011;3098;42.678;23.364;2022-11-02T13:07:19;9.15;;;2.17;;
6133;SDS011;3098;42.678;23.364;2022-11-02T13:09:52;7.10;;;1.95;;
6133;SDS011;3098;42.678;23.364;2022-11-02T13:12:26;8.07;;;1.85;;
6133;SDS011;3098;42.678;23.364;2022-11-02T13:14:56;6.70;;;1.90;;
6133;SDS011;3098;42.678;23.364;2022-11-02T13:17:29;1.77;;;1.33;;
6133;SDS011;3098;42.678;23.364;2022-11-02T13:20:04;6.93;;;2.08;;
6133;SDS011;3098;42.678;23.364;2022-11-02T13:22:40;3.60;;;1.52;;
6133;SDS011;3098;42.678;23.364;2022-11-02T13:25:14;6.20;;;2.05;;
6133;SDS011;3098;42.678;23.364;2022-11-02T13:27:46;3.13;;;2.25;;
6133;SDS011;3098;42.678;23.364;2022-11-02T13:30:16;6.38;;;2.05;;
6133;SDS011;3098;42.678;23.364;2022-11-02T13:32:47;6.13;;;1.80;;
6133;SDS011;3098;42.678;23.364;2022-11-02T13:35:19;20.73;;;2.22;;
6133;SDS011;3098;42.678;23.364;2022-11-02T13:37:53;10.57;;;2.13;;
6133;SDS011;3098;42.678;23.364;2022-11-02T13:40:28;5.43;;;1.95;;
6133;SDS011;3098;42.678;23.364;2022-11-02T13:46:16;4.65;;;1.83;;
6133;SDS011;3098;42.678;23.364;2022-11-02T13:49:03;6.85;;;2.42;;
6133;SDS011;3098;42.678;23.364;2022-11-02T13:51:39;14.18;;;2.17;;
6133;SDS011;3098;42.678;23.364;2022-11-02T13:54:11;3.95;;;2.45;;
6133;SDS011;3098;42.678;23.364;2022-11-02T13:56:42;4.40;;;1.73;;
6133;SDS011;3098;42.678;23.364;2022-11-02T13:59:17;4.85;;;1.95;;
6133;SDS011;3098;42.678;23.364;2022-11-02T14:01:46;3.83;;;2.65;;
6133;SDS011;3098;42.678;23.364;2022-11-02T14:04:19;3.15;;;2.30;;
6133;SDS011;3098;42.678;23.364;2022-11-02T14:06:48;8.85;;;2.33;;
6133;SDS011;3098;42.678;23.364;2022-11-02T14:09:29;7.80;;;2.08;;
6133;SDS011;3098;42.678;23.364;2022-11-02T14:12:11;7.53;;;2.05;;
6133;SDS011;3098;42.678;23.364;2022-11-02T14:20:59;8.98;;;2.00;;
6133;SDS011;3098;42.678;23.364;2022-11-02T14:24:01;4.35;;;3.00;;
6133;SDS011;3098;42.678;23.364;2022-11-02T14:26:29;3.92;;;2.42;;
6133;SDS011;3098;42.678;23.364;2022-11-02T14:29:47;6.60;;;2.88;;
6133;SDS011;3098;42.678;23.364;2022-11-02T14:32:18;4.65;;;2.42;;
6133;SDS011;3098;42.678;23.364;2022-11-02T14:34:57;8.80;;;2.88;;
6133;SDS011;3098;42.678;23.364;2022-11-02T14:37:40;8.50;;;3.35;;
6133;SDS011;3098;42.678;23.364;2022-11-02T14:40:22;6.85;;;2.78;;
6133;SDS011;3098;42.678;23.364;2022-11-02T14:46:10;4.38;;;2.83;;
6133;SDS011;3098;42.678;23.364;2022-11-02T14:48:48;4.82;;;2.42;;
6133;SDS011;3098;42.678;23.364;2022-11-02T14:51:18;5.75;;;2.95;;
6133;SDS011;3098;42.678;23.364;2022-11-02T14:53:52;9.60;;;2.90;;
6133;SDS011;3098;42.678;23.364;2022-11-02T14:56:22;6.63;;;2.90;;
6133;SDS011;3098;42.678;23.364;2022-11-02T14:58:50;11.20;;;2.50;;
6133;SDS011;3098;42.678;23.364;2022-11-02T15:01:21;4.00;;;2.40;;
6133;SDS011;3098;42.678;23.364;2022-11-02T15:03:50;4.88;;;2.50;;
6133;SDS011;3098;42.678;23.364;2022-11-02T15:06:20;5.43;;;2.50;;
6133;SDS011;3098;42.678;23.364;2022-11-02T15:08:52;5.28;;;2.83;;
6133;SDS011;3098;42.678;23.364;2022-11-02T15:14:30;4.72;;;2.38;;
6133;SDS011;3098;42.678;23.364;2022-11-02T15:20:19;10.60;;;3.22;;
6133;SDS011;3098;42.678;23.364;2022-11-02T15:23:04;4.50;;;2.67;;
6133;SDS011;3098;42.678;23.364;2022-11-02T15:25:47;7.18;;;2.70;;
6133;SDS011;3098;42.678;23.364;2022-11-02T15:28:16;10.13;;;3.20;;
6133;SDS011;3098;42.678;23.364;2022-11-02T15:30:48;6.68;;;2.95;;
6133;SDS011;3098;42.678;23.364;2022-11-02T15:33:18;3.97;;;2.30;;
6133;SDS011;3098;42.678;23.364;2022-11-02T15:35:50;10.07;;;2.60;;
6133;SDS011;3098;42.678;23.364;2022-11-02T15:38:20;5.38;;;2.53;;
6133;SDS011;3098;42.678;23.364;2022-11-02T15:40:55;8.73;;;3.08;;
6133;SDS011;3098;42.678;23.364;2022-11-02T15:43:39;18.48;;;3.50;;
6133;SDS011;3098;42.678;23.364;2022-11-02T15:46:30;11.05;;;3.53;;
6133;SDS011;3098;42.678;23.364;2022-11-02T15:49:09;6.55;;;2.85;;